Hlavní strana
METAR-TAF:

METAR-TAF

Letiště :

Niamey, Niger

zeměpisná šířka: 13-29N, zeměpisná délka: 002-10E, výška: 223 m

Aktuální stav počasí

Zpráva byla vytvořena před 58 minutami, v 10:00 UTC
Východoseverovýchodní vítr 14 kt
Teplota 30°C
Vlhkost vzduchu 7%
Tlak 1014 hPa
Viditelnost: 3200 m
rozsáhlý prach

METAR: DRRN 251000Z 06014KT 3200 DU NSC 30/M09 Q1014 TEMPO 2500

Čas: 11:58 (10:58 UTC)

Předpověď počasí

Zpráva byla vytvořena před 3 hodinami a 40 minutami, v 07:18 UTC
Předpověď platná od 25 v 06 UTC do 26 v 12 UTC
Severoseverovýchodní vítr 8 kt
Viditelnost: 3500 m
rozsáhlý prach
Dočasný
od 25 v 08 UTC do 25 v 14 UTC
Východní vítr 15 kt
Viditelnost: 1200 m
zvířený prach

TAF: DRRN 250718Z 2506/2612 02008KT 3500 DU NSC TEMPO 2508/2514 10015KT 1200 BLDU

Stav a předpovědi počasí z více než 4 000 letišť (zprávy METAR a TAF).

Červené a žluté tečky na mapě představují dostupné meteorologické stanice.

Když kurzor umístíte na tečku, zobrazí se název stanice.

Pak kliknutím zobrazíte stav a předpověď počasí.

Chcete-li změnit mapu, kliknutím na zelené tlačítko se znaménkem +mapu přiblížíte, kliknutím na zelené tlačítko se znaménkem – mapu oddálíte a kliknutím na zelené šipky přejdete na sousední mapy.


METAR-TAF: